Jolyn — PJWG — position and weather

sailwx.info

Track history (hours):
 
Tides and Currents Weather Stations Pressure Air Temp Water Temp Dewpoint Dewpoint Depression Visibility Wind Speed Wind Dir Waves Ship Positions

Jolyn

Last reported at 2015-Apr-28 01:31 UTC. Time now 2015-Apr-28 02:04 UTC.
Position N 54°32' E 018°33'.

Length 89 m; draft 5.2 m.

Type: Cargo ship. MMSI: 306813000.

Date/timePositionNaut miles runAvg speedWind from/ knotsBaromVisibWave heightAir tempDewpointWater temp
2015-Apr-28 01:31N 54°32' E 018°33'0 0.0
2015-Apr-28 00:31N 54°32' E 018°33'0 0.0
2015-Apr-27 23:31N 54°32' E 018°33'0 0.0
2015-Apr-27 22:31N 54°32' E 018°33'0 0.0
2015-Apr-27 21:31N 54°32' E 018°33'0 0.0
2015-Apr-27 20:31N 54°32' E 018°33'0 0.0
2015-Apr-27 19:31N 54°32' E 018°33'0 0.0
2015-Apr-27 18:31N 54°32' E 018°33'0 0.0
2015-Apr-27 17:31N 54°32' E 018°33'0 0.0
2015-Apr-27 16:31N 54°32' E 018°33'0 0.0
2015-Apr-27 15:31N 54°32' E 018°33'0 0.0
2015-Apr-27 14:31N 54°32' E 018°33'0 0.0
2015-Apr-27 13:31N 54°32' E 018°33'0 0.0
2015-Apr-27 12:31N 54°32' E 018°33'0 0.0
2015-Apr-27 11:31N 54°32' E 018°33'0 0.0
2015-Apr-27 10:31N 54°32' E 018°33'0 0.0
2015-Apr-27 09:31N 54°32' E 018°33'0 0.0
2015-Apr-27 08:31N 54°32' E 018°33'0 0.0
2015-Apr-27 07:31N 54°32' E 018°33'0 0.0
2015-Apr-27 06:31N 54°32' E 018°33'0 0.0
2015-Apr-27 05:31N 54°32' E 018°33'0 0.0
2015-Apr-27 04:31N 54°32' E 018°33'0 0.0
2015-Apr-27 03:31N 54°32' E 018°33'0 0.0
2015-Apr-27 02:31N 54°32' E 018°33'0 0.0
2015-Apr-27 01:31N 54°32' E 018°33'0 0.0
2015-Apr-27 00:31N 54°32' E 018°33'0 0.0
2015-Apr-26 23:31N 54°32' E 018°33'0 0.0
2015-Apr-26 22:31N 54°32' E 018°33'0 0.0
2015-Apr-26 21:31N 54°32' E 018°33'0 0.0
2015-Apr-26 20:31N 54°32' E 018°33'0 0.0
2015-Apr-26 19:31N 54°32' E 018°33'0 0.0
2015-Apr-26 18:31N 54°32' E 018°33'0 0.0
2015-Apr-26 17:31N 54°32' E 018°33'0 0.0
2015-Apr-26 16:31N 54°32' E 018°33'0 0.0
2015-Apr-26 15:31N 54°32' E 018°33'0 0.0
2015-Apr-26 14:31N 54°32' E 018°33'0 0.0
2015-Apr-26 13:31N 54°32' E 018°33'0 0.0
2015-Apr-26 12:31N 54°32' E 018°33'0 0.0
2015-Apr-26 11:31N 54°32' E 018°33'0 0.0
2015-Apr-26 10:31N 54°32' E 018°33'0 0.0
2015-Apr-26 09:31N 54°32' E 018°33'0 0.0
2015-Apr-26 08:31N 54°32' E 018°33'0 0.0
2015-Apr-26 07:31N 54°32' E 018°33'0 0.0
2015-Apr-26 06:31N 54°32' E 018°33'0 0.0
2015-Apr-26 05:31N 54°32' E 018°33'0 0.0
2015-Apr-26 04:31N 54°32' E 018°33'0 0.0
2015-Apr-26 03:31N 54°32' E 018°33'0 0.0
2015-Apr-26 02:31N 54°32' E 018°33'0 0.0
2015-Apr-26 01:31N 54°32' E 018°33'0 0.0
2015-Apr-26 00:31N 54°32' E 018°33'0 0.0
2015-Apr-25 23:31N 54°32' E 018°33'0 0.0
2015-Apr-25 22:31N 54°32' E 018°33'0 0.0
2015-Apr-25 21:31N 54°32' E 018°33'0 0.0
2015-Apr-25 20:31N 54°32' E 018°33'0 0.0
2015-Apr-25 19:31N 54°32' E 018°33'3 3.0
2015-Apr-25 18:33N 54°32' E 018°38'8 8.1
2015-Apr-25 17:33N 54°34' E 018°51'9 9.1
2015-Apr-25 16:33N 54°43' E 018°58'9 8.5
2015-Apr-25 15:33N 54°51' E 018°60'8 8.2
2015-Apr-25 14:33N 54°59' E 019°01'9 8.3
2015-Apr-25 13:32N 55°08' E 019°02'8 8.2
2015-Apr-25 12:33N 55°16' E 019°02'8 8.3
2015-Apr-25 11:33N 55°24' E 019°01'  
2015-Apr-19 07:32N 57°20' E 017°45'160 9.9
2015-Apr-18 15:23N 55°20' E 014°34'810.2
2015-Apr-18 14:33N 55°14' E 014°24'9 9.2
2015-Apr-18 13:33N 55°10' E 014°08'2410.4
2015-Apr-18 11:12N 55°13' E 013°26'710.5
2015-Apr-18 10:33N 55°13' E 013°14'1010.5
2015-Apr-18 09:33N 55°14' E 012°56'1010.3
2015-Apr-18 08:33N 55°18' E 012°39'10 9.7
2015-Apr-18 07:34N 55°28' E 012°40'10 9.6
2015-Apr-18 06:33N 55°37' E 012°42'10 9.8
2015-Apr-18 05:34N 55°47' E 012°40'1010.0
2015-Apr-18 04:34N 55°57' E 012°38'9 8.5
2015-Apr-18 03:33N 56°05' E 012°34'9 9.5
2015-Apr-18 02:34N 56°11' E 012°21'1010.5
2015-Apr-18 01:34N 56°16' E 012°05'  
Track history (hours):
 
Tides and Currents Weather Stations Pressure Air Temp Water Temp Dewpoint Dewpoint Depression Visibility Wind Speed Wind Dir Waves Ship Positions

Jolyn

Last reported at 2015-Apr-28 01:31 UTC. Time now 2015-Apr-28 02:04 UTC.
Position N 54°32' E 018°33'.

Length 89 m; draft 5.2 m.

Type: Cargo ship. MMSI: 306813000.

Date/timePositionNaut miles runAvg speedWind from/ knotsBaromVisibWave heightAir tempDewpointWater temp
2015-Apr-28 01:31N 54°32' E 018°33'0 0.0
2015-Apr-28 00:31N 54°32' E 018°33'0 0.0
2015-Apr-27 23:31N 54°32' E 018°33'0 0.0
2015-Apr-27 22:31N 54°32' E 018°33'0 0.0
2015-Apr-27 21:31N 54°32' E 018°33'0 0.0
2015-Apr-27 20:31N 54°32' E 018°33'0 0.0
2015-Apr-27 19:31N 54°32' E 018°33'0 0.0
2015-Apr-27 18:31N 54°32' E 018°33'0 0.0
2015-Apr-27 17:31N 54°32' E 018°33'0 0.0
2015-Apr-27 16:31N 54°32' E 018°33'0 0.0
2015-Apr-27 15:31N 54°32' E 018°33'0 0.0
2015-Apr-27 14:31N 54°32' E 018°33'0 0.0
2015-Apr-27 13:31N 54°32' E 018°33'0 0.0
2015-Apr-27 12:31N 54°32' E 018°33'0 0.0
2015-Apr-27 11:31N 54°32' E 018°33'0 0.0
2015-Apr-27 10:31N 54°32' E 018°33'0 0.0
2015-Apr-27 09:31N 54°32' E 018°33'0 0.0
2015-Apr-27 08:31N 54°32' E 018°33'0 0.0
2015-Apr-27 07:31N 54°32' E 018°33'0 0.0
2015-Apr-27 06:31N 54°32' E 018°33'0 0.0
2015-Apr-27 05:31N 54°32' E 018°33'0 0.0
2015-Apr-27 04:31N 54°32' E 018°33'0 0.0
2015-Apr-27 03:31N 54°32' E 018°33'0 0.0
2015-Apr-27 02:31N 54°32' E 018°33'0 0.0
2015-Apr-27 01:31N 54°32' E 018°33'0 0.0
2015-Apr-27 00:31N 54°32' E 018°33'0 0.0
2015-Apr-26 23:31N 54°32' E 018°33'0 0.0
2015-Apr-26 22:31N 54°32' E 018°33'0 0.0
2015-Apr-26 21:31N 54°32' E 018°33'0 0.0
2015-Apr-26 20:31N 54°32' E 018°33'0 0.0
2015-Apr-26 19:31N 54°32' E 018°33'0 0.0
2015-Apr-26 18:31N 54°32' E 018°33'0 0.0
2015-Apr-26 17:31N 54°32' E 018°33'0 0.0
2015-Apr-26 16:31N 54°32' E 018°33'0 0.0
2015-Apr-26 15:31N 54°32' E 018°33'0 0.0
2015-Apr-26 14:31N 54°32' E 018°33'0 0.0
2015-Apr-26 13:31N 54°32' E 018°33'0 0.0
2015-Apr-26 12:31N 54°32' E 018°33'0 0.0
2015-Apr-26 11:31N 54°32' E 018°33'0 0.0
2015-Apr-26 10:31N 54°32' E 018°33'0 0.0
2015-Apr-26 09:31N 54°32' E 018°33'0 0.0
2015-Apr-26 08:31N 54°32' E 018°33'0 0.0
2015-Apr-26 07:31N 54°32' E 018°33'0 0.0
2015-Apr-26 06:31N 54°32' E 018°33'0 0.0
2015-Apr-26 05:31N 54°32' E 018°33'0 0.0
2015-Apr-26 04:31N 54°32' E 018°33'0 0.0
2015-Apr-26 03:31N 54°32' E 018°33'0 0.0
2015-Apr-26 02:31N 54°32' E 018°33'0 0.0
2015-Apr-26 01:31N 54°32' E 018°33'0 0.0
2015-Apr-26 00:31N 54°32' E 018°33'0 0.0
2015-Apr-25 23:31N 54°32' E 018°33'0 0.0
2015-Apr-25 22:31N 54°32' E 018°33'0 0.0
2015-Apr-25 21:31N 54°32' E 018°33'0 0.0
2015-Apr-25 20:31N 54°32' E 018°33'0 0.0
2015-Apr-25 19:31N 54°32' E 018°33'3 3.0
2015-Apr-25 18:33N 54°32' E 018°38'8 8.1
2015-Apr-25 17:33N 54°34' E 018°51'9 9.1
2015-Apr-25 16:33N 54°43' E 018°58'9 8.5
2015-Apr-25 15:33N 54°51' E 018°60'8 8.2
2015-Apr-25 14:33N 54°59' E 019°01'9 8.3
2015-Apr-25 13:32N 55°08' E 019°02'8 8.2
2015-Apr-25 12:33N 55°16' E 019°02'8 8.3
2015-Apr-25 11:33N 55°24' E 019°01'  
2015-Apr-19 07:32N 57°20' E 017°45'160 9.9
2015-Apr-18 15:23N 55°20' E 014°34'810.2
2015-Apr-18 14:33N 55°14' E 014°24'9 9.2
2015-Apr-18 13:33N 55°10' E 014°08'2410.4
2015-Apr-18 11:12N 55°13' E 013°26'710.5
2015-Apr-18 10:33N 55°13' E 013°14'1010.5
2015-Apr-18 09:33N 55°14' E 012°56'1010.3
2015-Apr-18 08:33N 55°18' E 012°39'10 9.7
2015-Apr-18 07:34N 55°28' E 012°40'10 9.6
2015-Apr-18 06:33N 55°37' E 012°42'10 9.8
2015-Apr-18 05:34N 55°47' E 012°40'1010.0
2015-Apr-18 04:34N 55°57' E 012°38'9 8.5
2015-Apr-18 03:33N 56°05' E 012°34'9 9.5
2015-Apr-18 02:34N 56°11' E 012°21'1010.5
2015-Apr-18 01:34N 56°16' E 012°05'  

Dump ship's entire track history